Pagrindinis puslapis
METAR-TAF:

METAR-TAF

Oro uostai :

Panama Pacifico, Panama

platuma: 08-55N, ilguma: 079-36W, Aukštis: 16 m

Dabartinis oras

Ataskaita buvo paskelbta 1 valandą ir 19 minutes, ne 20:00 UTC
Vėjas 14 kt iš Šiaurės/Šiaurės Rytų
Temperatūra 32°C
Drėgmė 59%
Slėgis 1006 hPa
Matomumas 10 km arba daugiau
Mažai debesys ne aukštis 2000 ft

METAR: MPPA 262000Z 02014KT 9999 FEW020 32/23 Q1006

Laikas: 16:19 (21:19 UTC)

Prognozė

Ataskaita buvo paskelbta 4 valandos ir 19 minutes, ne 17:00 UTC
Prognozė galioja nuo 26 metu 18 UTC su 27 metu 24 UTC
Vėjas 10 kt iš Šiaurės/Šiaurės Rytų
Matomumas 10 km arba daugiau
Mažai debesys ne aukštis 1800 ft
Laikinai
nuo 26 metu 19 UTC su 26 metu 21 UTC
Vėjas 14 kt iš Šiaurės
Laikinai
nuo 27 metu 06 UTC su 27 metu 08 UTC
Vėjas kt iš Šiaurės

TAF: MPPA 261700Z 2618/2724 02010KT 9999 FEW018 TEMPO 2619/2621 36014KT TEMPO 2706/2708 00000KT

Orai ataskaitas ir orų prognozės (METAR, TAF).

turimą stotys yra geltonos ir raudonos taškus žemėlapyje.

Perkelti pele per norėdami pamatyti stoties vardą.

Tada spustelėkite, norėdami matyti oro stebėjimo ir prognozės.

Norėdami pakeisti žemėlapį: spustelėkite ant žalios mygtukų su juodo kryžiaus žemyn,; žalią mygtuką su brūkšneliu, jei norite nutolinti; arba žalių rodyklių gretimoms žemėlapius.


METAR-TAF: